createdAt,value
2024-04-10T00:00:31.776Z,100698.78
2024-04-10T00:02:59.891Z,100697.03
2024-04-10T00:05:28.201Z,100705.75
2024-04-10T00:07:56.700Z,100706.59
2024-04-10T00:10:24.964Z,100713.53
2024-04-10T00:12:52.991Z,100704.91
2024-04-10T00:15:21.275Z,100708.38
2024-04-10T00:17:52.854Z,100709.19
2024-04-10T00:20:21.770Z,100704.88
2024-04-10T00:22:49.681Z,100690.97
2024-04-10T00:25:17.685Z,100688.38
2024-04-10T00:27:46.389Z,100679.69
2024-04-10T00:30:14.661Z,100677.97
2024-04-10T00:32:42.773Z,100668.41
2024-04-10T00:35:11.063Z,100669.31
2024-04-10T00:37:40.032Z,100679.72
2024-04-10T00:40:10.680Z,100691.88
2024-04-10T00:42:38.956Z,100689.28
2024-04-10T00:45:09.812Z,100688.41
2024-04-10T00:47:38.061Z,100687.53
2024-04-10T00:50:08.586Z,100676.25
2024-04-10T00:52:36.679Z,100677.13
2024-04-10T00:55:05.703Z,100678.88
2024-04-10T00:57:33.876Z,100673.66
2024-04-10T01:00:01.921Z,100683.19
2024-04-10T01:02:33.394Z,100673.66
2024-04-10T01:05:02.044Z,100678.84
2024-04-10T01:07:30.318Z,100679.72
2024-04-10T01:09:58.762Z,100678.88
2024-04-10T01:12:30.220Z,100686.66
2024-04-10T01:14:58.412Z,100675.38
2024-04-10T01:17:26.937Z,100666.69
2024-04-10T01:19:59.479Z,100665.81
2024-04-10T01:22:27.655Z,100672.75
2024-04-10T01:24:56.036Z,100684.91
2024-04-10T01:27:23.912Z,100681.44
2024-04-10T01:29:52.136Z,100688.38
2024-04-10T01:32:20.417Z,100680.53
2024-04-10T01:34:49.033Z,100682.28
2024-04-10T01:37:19.695Z,100683.13
2024-04-10T01:39:47.894Z,100683.00
2024-04-10T01:42:16.280Z,100690.81
2024-04-10T01:44:44.817Z,100687.19
2024-04-10T01:47:13.384Z,100689.72
2024-04-10T01:49:41.623Z,100690.47
2024-04-10T01:52:10.363Z,100706.06
2024-04-10T01:54:39.078Z,100699.13
2024-04-10T01:57:07.225Z,100699.97
2024-04-10T01:59:35.023Z,100707.81
2024-04-10T02:02:03.798Z,100715.59
2024-04-10T02:04:33.183Z,100707.81
2024-04-10T02:07:01.448Z,100712.13
2024-04-10T02:09:29.796Z,100713.84
2024-04-10T02:11:58.674Z,100710.41
2024-04-10T02:14:27.220Z,100715.59
2024-04-10T02:16:55.587Z,100724.19
2024-04-10T02:19:23.702Z,100726.69
2024-04-10T02:21:54.716Z,100725.00
2024-04-10T02:24:23.035Z,100729.34
2024-04-10T02:26:51.681Z,100729.38
2024-04-10T02:29:20.727Z,100726.78
2024-04-10T02:31:49.036Z,100746.69
2024-04-10T02:34:17.726Z,100739.75
2024-04-10T02:36:45.639Z,100748.41
2024-04-10T02:39:16.240Z,100742.34
2024-04-10T02:41:44.508Z,100739.81
2024-04-10T02:44:12.935Z,100734.56
2024-04-10T02:46:41.219Z,100725.91
2024-04-10T02:49:09.500Z,100724.16
2024-04-10T02:51:37.653Z,100727.66
2024-04-10T02:54:06.091Z,100737.22
2024-04-10T02:56:34.731Z,100744.16
2024-04-10T02:59:02.967Z,100737.25
2024-04-10T03:01:31.515Z,100731.19
2024-04-10T03:03:59.798Z,100729.44
2024-04-10T03:06:29.002Z,100740.72
2024-04-10T03:08:57.317Z,100747.66
2024-04-10T03:11:26.605Z,100752.00
2024-04-10T03:13:54.556Z,100757.19
2024-04-10T03:16:23.211Z,100763.28
2024-04-10T03:18:51.555Z,100767.66
2024-04-10T03:21:20.051Z,100759.84
2024-04-10T03:23:48.546Z,100766.78
2024-04-10T03:26:17.019Z,100767.63
2024-04-10T03:28:45.011Z,100765.06
2024-04-10T03:31:13.752Z,100759.88
2024-04-10T03:33:42.099Z,100761.63
2024-04-10T03:36:10.408Z,100761.66
2024-04-10T03:38:38.677Z,100767.75
2024-04-10T03:41:07.281Z,100773.81
2024-04-10T03:43:35.335Z,100770.38
2024-04-10T03:46:03.717Z,100766.88
2024-04-10T03:48:31.818Z,100759.91
2024-04-10T03:51:04.162Z,100766.00
2024-04-10T03:53:32.548Z,100753.03
2024-04-10T03:56:00.634Z,100760.84
2024-04-10T03:58:28.935Z,100756.47
2024-04-10T04:00:57.106Z,100757.31
2024-04-10T04:03:24.984Z,100750.38
2024-04-10T04:05:53.300Z,100754.69
2024-04-10T04:08:22.554Z,100763.31
2024-04-10T04:10:50.641Z,100768.53
2024-04-10T04:13:18.623Z,100757.28
2024-04-10T04:15:47.047Z,100763.38
2024-04-10T04:18:15.115Z,100764.22
2024-04-10T04:20:43.124Z,100770.31
2024-04-10T04:23:11.423Z,100772.06
2024-04-10T04:25:40.032Z,100765.13
2024-04-10T04:28:08.195Z,100773.78
2024-04-10T04:30:37.505Z,100759.84
2024-04-10T04:33:06.553Z,100753.81
2024-04-10T04:35:35.541Z,100767.66
2024-04-10T04:38:03.434Z,100767.66
2024-04-10T04:40:32.518Z,100749.47
2024-04-10T04:43:01.912Z,100752.88
2024-04-10T04:45:30.657Z,100761.53
2024-04-10T04:47:59.200Z,100768.47
2024-04-10T04:50:27.026Z,100771.06
2024-04-10T04:52:55.329Z,100773.72
2024-04-10T04:55:23.490Z,100775.44
2024-04-10T04:57:52.258Z,100771.94
2024-04-10T05:00:23.786Z,100772.84
2024-04-10T05:02:51.943Z,100774.63
2024-04-10T05:05:20.442Z,100776.41
2024-04-10T05:07:49.763Z,100767.75
2024-04-10T05:10:17.986Z,100769.47
2024-04-10T05:12:45.934Z,100772.94
2024-04-10T05:15:14.729Z,100776.41
2024-04-10T05:17:43.402Z,100787.72
2024-04-10T05:20:17.761Z,100785.16
2024-04-10T05:22:46.218Z,100801.59
2024-04-10T05:25:14.293Z,100799.00
2024-04-10T05:27:45.190Z,100801.63
2024-04-10T05:30:14.605Z,100811.13
2024-04-10T05:32:42.752Z,100814.63
2024-04-10T05:35:14.468Z,100811.19
2024-04-10T05:37:43.463Z,100819.88
2024-04-10T05:40:15.303Z,100812.97
2024-04-10T05:42:43.684Z,100808.66
2024-04-10T05:45:14.080Z,100803.47
2024-04-10T05:47:42.528Z,100800.03
2024-04-10T05:50:11.077Z,100804.38
2024-04-10T05:52:41.184Z,100800.88
2024-04-10T05:55:10.146Z,100793.94
2024-04-10T05:57:38.776Z,100790.50
2024-04-10T06:00:11.279Z,100782.72
2024-04-10T06:02:44.370Z,100794.81
2024-04-10T06:05:12.404Z,100795.75
2024-04-10T06:07:44.912Z,100806.19
2024-04-10T06:10:13.118Z,100809.63
2024-04-10T06:12:41.583Z,100811.38
2024-04-10T06:15:10.192Z,100814.84
2024-04-10T06:17:39.501Z,100813.16
2024-04-10T06:20:12.675Z,100813.16
2024-04-10T06:22:41.634Z,100817.47
2024-04-10T06:25:09.044Z,100820.97
2024-04-10T06:27:37.684Z,100824.41
2024-04-10T06:30:09.216Z,100833.97
2024-04-10T06:32:37.568Z,100843.50
2024-04-10T06:35:07.088Z,100855.66
2024-04-10T06:37:35.311Z,100865.13
2024-04-10T06:40:03.635Z,100872.50
2024-04-10T06:42:32.452Z,100863.63
2024-04-10T06:45:01.088Z,100876.41
2024-04-10T06:47:29.472Z,100878.91
2024-04-10T06:49:57.518Z,100871.94
2024-04-10T06:52:26.264Z,100893.53
2024-04-10T06:54:54.128Z,100888.97
2024-04-10T06:57:22.331Z,100892.50
2024-04-10T06:59:50.569Z,100891.66
2024-04-10T07:02:19.110Z,100896.94
2024-04-10T07:04:52.147Z,100902.75
2024-04-10T07:07:21.130Z,100906.16
2024-04-10T07:09:51.089Z,100908.88
2024-04-10T07:12:19.864Z,100922.66
2024-04-10T07:14:48.274Z,100908.56
2024-04-10T07:17:16.838Z,100914.38
2024-04-10T07:19:45.148Z,100918.38
2024-04-10T07:22:13.205Z,100912.22
2024-04-10T07:24:41.966Z,100916.47
2024-04-10T07:27:10.197Z,100925.88
2024-04-10T07:29:38.735Z,100917.06
2024-04-10T07:32:07.088Z,100918.25
2024-04-10T07:34:35.134Z,100917.72
2024-04-10T07:37:04.899Z,100909.69
2024-04-10T07:39:32.591Z,100909.78
2024-04-10T07:42:00.991Z,100906.44
2024-04-10T07:44:29.975Z,100912.44
2024-04-10T07:46:58.348Z,100922.91
2024-04-10T07:49:26.381Z,100931.22
2024-04-10T07:51:55.014Z,100936.44
2024-04-10T07:54:22.959Z,100943.22
2024-04-10T07:56:51.398Z,100939.78
2024-04-10T07:59:20.268Z,100950.13
2024-04-10T08:01:49.120Z,100954.09
2024-04-10T08:04:17.679Z,100960.81
2024-04-10T08:06:45.901Z,100959.78
2024-04-10T08:09:13.690Z,100966.53
2024-04-10T08:11:41.591Z,100975.91
2024-04-10T08:14:09.940Z,100975.75
2024-04-10T08:16:37.995Z,100972.44
2024-04-10T08:19:08.337Z,100971.81
2024-04-10T08:21:42.537Z,100966.75
2024-04-10T08:24:11.118Z,100959.16
2024-04-10T08:26:40.010Z,100970.38
2024-04-10T08:29:11.069Z,100969.59
2024-04-10T08:31:38.998Z,100980.06
2024-04-10T08:34:07.506Z,100983.72
2024-04-10T08:36:35.785Z,100990.09
2024-04-10T08:39:06.088Z,100996.38
2024-04-10T08:41:33.472Z,100990.53
2024-04-10T08:44:01.874Z,100993.25
2024-04-10T08:46:30.313Z,101001.06
2024-04-10T08:48:58.949Z,101000.34
2024-04-10T08:51:28.489Z,100998.03
2024-04-10T08:53:56.819Z,101017.34
2024-04-10T08:56:25.249Z,101027.63
2024-04-10T08:58:55.303Z,101040.41
2024-04-10T09:01:29.290Z,101053.22
2024-04-10T09:03:58.360Z,101053.88
2024-04-10T09:06:26.626Z,101050.94
2024-04-10T09:09:01.435Z,101043.88
2024-04-10T09:11:29.966Z,101054.88
2024-04-10T09:14:04.292Z,101061.97
2024-04-10T09:16:32.568Z,101049.78
2024-04-10T09:19:20.069Z,101052.59
2024-04-10T09:22:07.691Z,101062.91
2024-04-10T09:24:36.242Z,101064.50
2024-04-10T09:27:10.836Z,101059.97
2024-04-10T09:29:38.646Z,101057.19
2024-04-10T09:32:09.264Z,101068.34
2024-04-10T09:34:37.706Z,101076.91
2024-04-10T09:37:07.778Z,101071.81
2024-04-10T09:39:37.364Z,101085.81
2024-04-10T09:42:06.026Z,101086.13
2024-04-10T09:44:35.075Z,101088.06
2024-04-10T09:47:03.626Z,101094.00
2024-04-10T09:49:43.311Z,101103.19
2024-04-10T09:52:12.380Z,101107.47
2024-04-10T09:54:40.523Z,101098.16
2024-04-10T09:57:10.832Z,101094.94
2024-04-10T09:59:39.111Z,101086.53
2024-04-10T10:02:30.186Z,101092.03
2024-04-10T10:05:02.365Z,101082.72
2024-04-10T10:07:31.062Z,101083.81
2024-04-10T10:10:09.130Z,101075.31
2024-04-10T10:12:38.354Z,101072.94
2024-04-10T10:15:09.982Z,101067.97
2024-04-10T10:17:50.142Z,101073.34
2024-04-10T10:20:25.665Z,101072.53
2024-04-10T10:23:10.497Z,101081.28
2024-04-10T10:25:41.483Z,101081.31
2024-04-10T10:28:10.143Z,101078.31
2024-04-10T10:30:37.847Z,101074.03
2024-04-10T10:33:07.737Z,101086.38
2024-04-10T10:35:36.502Z,101083.88
2024-04-10T10:38:08.901Z,101086.50
2024-04-10T10:40:36.827Z,101076.13
2024-04-10T10:43:09.371Z,101083.94
2024-04-10T10:45:37.785Z,101092.63
2024-04-10T10:48:08.887Z,101092.28
2024-04-10T10:50:36.767Z,101099.94
2024-04-10T10:53:04.546Z,101102.25
2024-04-10T10:55:33.136Z,101113.31
2024-04-10T10:58:07.042Z,101110.78
2024-04-10T11:00:35.807Z,101122.13
2024-04-10T11:03:16.806Z,101129.19
2024-04-10T11:05:52.810Z,101124.13
2024-04-10T11:08:24.938Z,101118.97
2024-04-10T11:10:53.587Z,101117.44
2024-04-10T11:13:22.285Z,101116.97
2024-04-10T11:15:50.885Z,101113.75
2024-04-10T11:18:19.655Z,101111.88
2024-04-10T11:20:48.654Z,101125.75
2024-04-10T11:23:17.256Z,101128.38
2024-04-10T11:25:44.770Z,101121.50
2024-04-10T11:28:13.058Z,101122.50
2024-04-10T11:30:41.251Z,101127.91
2024-04-10T11:33:12.825Z,101126.31
2024-04-10T11:35:42.583Z,101126.44
2024-04-10T11:38:10.579Z,101139.63
2024-04-10T11:40:39.281Z,101138.84
2024-04-10T11:43:07.176Z,101144.22
2024-04-10T11:45:36.031Z,101141.00
2024-04-10T11:48:09.327Z,101137.72
2024-04-10T11:50:39.314Z,101139.25
2024-04-10T11:53:08.105Z,101147.00
2024-04-10T11:55:35.906Z,101144.34
2024-04-10T11:58:05.834Z,101140.00
2024-04-10T12:00:35.417Z,101138.13
2024-04-10T12:03:04.118Z,101134.47
2024-04-10T12:05:32.248Z,101123.25
2024-04-10T12:08:08.472Z,101130.91
2024-04-10T12:10:38.367Z,101127.22
2024-04-10T12:13:06.751Z,101135.66
2024-04-10T12:15:38.136Z,101134.75
2024-04-10T12:18:07.093Z,101131.22
2024-04-10T12:20:35.527Z,101136.41
2024-04-10T12:23:04.036Z,101131.19
2024-04-10T12:25:32.445Z,101131.19
2024-04-10T12:28:00.887Z,101133.81
2024-04-10T12:30:29.152Z,101142.50
2024-04-10T12:33:01.217Z,101150.31
2024-04-10T12:35:48.044Z,101147.00
2024-04-10T12:38:16.251Z,101148.81
2024-04-10T12:40:44.797Z,101146.41
2024-04-10T12:43:12.908Z,101146.50
2024-04-10T12:45:41.136Z,101151.13
2024-04-10T12:48:11.566Z,101166.88
2024-04-10T12:50:39.886Z,101174.75
2024-04-10T12:53:08.273Z,101168.63
2024-04-10T12:55:37.850Z,101180.75
2024-04-10T12:58:06.790Z,101179.91
2024-04-10T13:00:35.077Z,101186.84
2024-04-10T13:03:03.727Z,101185.97
2024-04-10T13:05:32.090Z,101192.94
2024-04-10T13:08:00.500Z,101201.44
2024-04-10T13:10:28.458Z,101202.22
2024-04-10T13:12:56.498Z,101190.84
2024-04-10T13:15:25.795Z,101194.13
2024-04-10T13:17:54.839Z,101209.63
2024-04-10T13:20:24.588Z,101211.13
2024-04-10T13:22:52.874Z,101215.56
2024-04-10T13:25:21.821Z,101212.94
2024-04-10T13:27:50.218Z,101207.69
2024-04-10T13:30:18.061Z,101217.19
2024-04-10T13:32:47.530Z,101210.16
2024-04-10T13:35:16.175Z,101212.75
2024-04-10T13:37:44.012Z,101218.75
2024-04-10T13:40:14.835Z,101236.06
2024-04-10T13:42:42.601Z,101252.56
2024-04-10T13:45:12.075Z,101239.84
2024-04-10T13:47:40.435Z,101245.41
2024-04-10T13:50:10.073Z,101258.78
2024-04-10T13:52:39.458Z,101263.09
2024-04-10T13:55:08.613Z,101258.34
2024-04-10T13:57:36.837Z,101265.75
2024-04-10T14:00:12.176Z,101275.16
2024-04-10T14:02:44.058Z,101273.06
2024-04-10T14:05:12.609Z,101284.66
2024-04-10T14:07:41.108Z,101287.59
2024-04-10T14:10:10.760Z,101288.88
2024-04-10T14:12:39.328Z,101277.13
2024-04-10T14:15:09.138Z,101281.78
2024-04-10T14:17:37.221Z,101283.75
2024-04-10T14:20:12.061Z,101291.06
2024-04-10T14:22:40.046Z,101296.91
2024-04-10T14:25:09.708Z,101286.97
2024-04-10T14:27:37.808Z,101303.44
2024-04-10T14:30:07.991Z,101297.53
2024-04-10T14:32:37.112Z,101299.28
2024-04-10T14:35:10.876Z,101300.28
2024-04-10T14:37:39.484Z,101296.88
2024-04-10T14:40:11.631Z,101295.19
2024-04-10T14:42:39.837Z,101297.81
2024-04-10T14:45:11.621Z,101307.19
2024-04-10T14:47:40.150Z,101311.59
2024-04-10T14:50:09.589Z,101307.25
2024-04-10T14:52:40.152Z,101303.00
2024-04-10T14:55:09.158Z,101316.88
2024-04-10T14:57:41.554Z,101303.19
2024-04-10T15:00:12.517Z,101309.31
2024-04-10T15:02:40.573Z,101317.22
2024-04-10T15:05:08.982Z,101319.00
2024-04-10T15:10:19.937Z,101314.81
2024-04-10T15:12:49.665Z,101307.94
2024-04-10T15:15:17.545Z,101314.94
2024-04-10T15:17:45.364Z,101324.53
2024-04-10T15:20:14.292Z,101329.78
2024-04-10T15:22:42.687Z,101342.63
2024-04-10T15:25:10.933Z,101350.47
2024-04-10T15:27:39.212Z,101354.00
2024-04-10T15:30:09.386Z,101355.78
2024-04-10T15:32:38.275Z,101362.72
2024-04-10T15:35:09.504Z,101355.88
2024-04-10T15:37:38.076Z,101372.38
2024-04-10T15:40:10.426Z,101377.72
2024-04-10T15:42:38.903Z,101377.88
2024-04-10T15:45:08.585Z,101380.53
2024-04-10T15:47:42.075Z,101379.75
2024-04-10T15:50:10.695Z,101372.06
2024-04-10T15:52:49.884Z,101374.66
2024-04-10T15:55:19.629Z,101371.34
2024-04-10T15:57:47.991Z,101360.16
2024-04-10T16:00:16.506Z,101374.25
2024-04-10T16:02:45.938Z,101371.94
2024-04-10T16:05:14.406Z,101375.72
2024-04-10T16:07:43.051Z,101368.03
2024-04-10T16:10:11.284Z,101376.78
2024-04-10T16:12:39.612Z,101379.38
2024-04-10T16:15:09.893Z,101370.81
2024-04-10T16:17:38.360Z,101376.13
2024-04-10T16:20:10.025Z,101380.44
2024-04-10T16:22:38.348Z,101382.16
2024-04-10T16:25:08.334Z,101388.31
2024-04-10T16:27:38.908Z,101388.13
2024-04-10T16:30:09.960Z,101401.03
2024-04-10T16:32:38.989Z,101406.06
2024-04-10T16:35:07.937Z,101406.88
2024-04-10T16:39:08.642Z,101403.38
2024-04-10T16:41:36.928Z,101411.97
2024-04-10T16:44:05.968Z,101411.19
2024-04-10T16:49:09.262Z,101400.13
2024-04-10T16:51:38.145Z,101417.56
2024-04-10T16:54:07.276Z,101415.06
2024-04-10T16:56:35.294Z,101411.63
2024-04-10T16:59:03.136Z,101419.38
2024-04-10T17:01:31.392Z,101430.44
2024-04-10T17:03:59.771Z,101441.53
2024-04-10T17:06:27.730Z,101433.56
2024-04-10T17:08:58.606Z,101438.66
2024-04-10T17:11:26.839Z,101441.97
2024-04-10T17:13:54.773Z,101436.75
2024-04-10T17:16:22.817Z,101445.25
2024-04-10T17:19:09.331Z,101456.47
2024-04-10T17:22:06.697Z,101450.97
2024-04-10T17:24:34.502Z,101463.06
2024-04-10T17:27:02.642Z,101463.00
2024-04-10T17:29:30.750Z,101468.13
2024-04-10T17:31:58.957Z,101468.09
2024-04-10T17:34:27.219Z,101468.03
2024-04-10T17:36:58.615Z,101472.34
2024-04-10T17:39:27.722Z,101486.88
2024-04-10T17:41:56.327Z,101475.44
2024-04-10T17:44:24.166Z,101476.28
2024-04-10T17:46:53.212Z,101492.38
2024-04-10T17:49:20.981Z,101492.34
2024-04-10T17:51:48.891Z,101496.63
2024-04-10T17:54:16.536Z,101501.72
2024-04-10T17:56:44.583Z,101500.84
2024-04-10T17:59:12.603Z,101510.41
2024-04-10T18:01:40.392Z,101511.19
2024-04-10T18:04:08.400Z,101522.22
2024-04-10T18:06:39.448Z,101523.88
2024-04-10T18:09:07.642Z,101534.25
2024-04-10T18:11:36.251Z,101530.50
2024-04-10T18:14:04.389Z,101535.72
2024-04-10T18:16:32.762Z,101537.22
2024-04-10T18:19:01.562Z,101537.00
2024-04-10T18:21:29.329Z,101548.81
2024-04-10T18:23:57.542Z,101549.69
2024-04-10T18:26:28.085Z,101555.78
2024-04-10T18:28:56.128Z,101560.03
2024-04-10T18:31:23.798Z,101562.47
2024-04-10T18:33:52.202Z,101560.66
2024-04-10T18:36:20.357Z,101562.22
2024-04-10T18:38:48.490Z,101572.38
2024-04-10T18:41:16.768Z,101580.22
2024-04-10T18:43:44.508Z,101586.25
2024-04-10T18:46:15.464Z,101586.25
2024-04-10T18:48:43.796Z,101587.31
2024-04-10T18:51:16.586Z,101595.09
2024-04-10T18:53:45.854Z,101600.16
2024-04-10T18:56:14.594Z,101607.78
2024-04-10T18:58:43.751Z,101606.22
2024-04-10T19:01:11.711Z,101618.41
2024-04-10T19:03:43.499Z,101620.31
2024-04-10T19:06:14.094Z,101618.69
2024-04-10T19:08:44.225Z,101626.56
2024-04-10T19:11:14.043Z,101630.94
2024-04-10T19:13:42.236Z,101634.44
2024-04-10T19:16:10.557Z,101649.97
2024-04-10T19:18:41.634Z,101643.81
2024-04-10T19:21:10.056Z,101653.47
2024-04-10T19:23:38.144Z,101650.75
2024-04-10T19:26:06.005Z,101654.28
2024-04-10T19:28:33.937Z,101658.50
2024-04-10T19:31:05.922Z,101664.53
2024-04-10T19:33:37.178Z,101667.25
2024-04-10T19:36:08.212Z,101670.69
2024-04-10T19:38:36.851Z,101677.72
2024-04-10T19:41:26.933Z,101671.69
2024-04-10T19:43:54.978Z,101675.06
2024-04-10T19:46:22.671Z,101681.13
2024-04-10T19:48:50.468Z,101677.66
2024-04-10T19:51:20.297Z,101688.16
2024-04-10T19:53:47.974Z,101689.88
2024-04-10T19:56:17.019Z,101696.84
2024-04-10T19:58:45.019Z,101695.28
2024-04-10T20:01:12.762Z,101697.06
2024-04-10T20:03:44.234Z,101701.47
2024-04-10T20:06:12.884Z,101703.16
2024-04-10T20:08:42.955Z,101704.84
2024-04-10T20:11:11.967Z,101703.94
2024-04-10T20:13:42.104Z,101700.41
2024-04-10T20:16:10.870Z,101713.53
2024-04-10T20:18:40.798Z,101715.38
2024-04-10T20:21:09.635Z,101722.34
2024-04-10T20:23:37.124Z,101713.72
2024-04-10T20:26:05.345Z,101730.06
2024-04-10T20:28:55.452Z,101730.19
2024-04-10T20:31:23.536Z,101737.16
2024-04-10T20:33:54.884Z,101737.16
2024-04-10T20:36:23.028Z,101743.16
2024-04-10T20:38:51.175Z,101751.84
2024-04-10T20:41:20.625Z,101753.53
2024-04-10T20:43:49.215Z,101750.88
2024-04-10T20:46:17.857Z,101753.28
2024-04-10T20:48:50.237Z,101749.91
2024-04-10T20:51:18.608Z,101753.34
2024-04-10T20:53:49.825Z,101755.13
2024-04-10T20:56:17.767Z,101764.66
2024-04-10T20:58:46.070Z,101763.91
2024-04-10T21:01:15.029Z,101766.38
2024-04-10T21:03:47.513Z,101762.00
2024-04-10T21:06:17.043Z,101763.72
2024-04-10T21:09:06.223Z,101769.81
2024-04-10T21:11:55.374Z,101771.50
2024-04-10T21:14:43.097Z,101784.56
2024-04-10T21:17:30.389Z,101787.25
2024-04-10T21:20:16.976Z,101790.06
2024-04-10T21:23:03.214Z,101805.56
2024-04-10T21:25:50.492Z,101801.09
2024-04-10T21:28:35.954Z,101811.34
2024-04-10T21:31:22.490Z,101812.75
2024-04-10T21:34:09.772Z,101818.81
2024-04-10T21:36:55.802Z,101818.63
2024-04-10T21:39:42.149Z,101818.41
2024-04-10T21:42:28.353Z,101825.19
2024-04-10T21:45:14.412Z,101830.81
2024-04-10T21:48:01.400Z,101841.88
2024-04-10T21:50:48.298Z,101845.94
2024-04-10T21:53:34.341Z,101851.84
2024-04-10T21:56:25.525Z,101849.88
2024-04-10T21:59:13.604Z,101849.00
2024-04-10T22:02:06.419Z,101857.66
2024-04-10T22:04:57.325Z,101860.25
2024-04-10T22:07:46.218Z,101864.69
2024-04-10T22:10:14.186Z,101867.28
2024-04-10T22:12:42.172Z,101872.59
2024-04-10T22:15:11.932Z,101877.66
2024-04-10T22:17:59.969Z,101884.63
2024-04-10T22:20:47.621Z,101876.00
2024-04-10T22:23:34.374Z,101883.88
2024-04-10T22:26:02.565Z,101890.66
2024-04-10T22:28:30.553Z,101887.06
2024-04-10T22:30:58.181Z,101888.66
2024-04-10T22:33:26.521Z,101887.06
2024-04-10T22:35:58.084Z,101881.88
2024-04-10T22:38:25.984Z,101899.03
2024-04-10T22:40:53.699Z,101895.50
2024-04-10T22:43:22.019Z,101903.09
2024-04-10T22:45:49.709Z,101909.28
2024-04-10T22:48:17.864Z,101906.94
2024-04-10T22:50:45.950Z,101911.19
2024-04-10T22:53:14.167Z,101913.72
2024-04-10T22:55:42.139Z,101924.09
2024-04-10T22:58:10.413Z,101919.53
2024-04-10T23:00:38.510Z,101921.97
2024-04-10T23:03:06.824Z,101917.56
2024-04-10T23:08:28.528Z,101919.16
2024-04-10T23:10:55.726Z,101928.56
2024-04-10T23:13:23.950Z,101925.13
2024-04-10T23:15:51.672Z,101933.75
2024-04-10T23:18:31.052Z,101932.91
2024-04-10T23:21:08.227Z,101927.13
2024-04-10T23:23:36.509Z,101932.22
2024-04-10T23:26:04.914Z,101934.03
2024-04-10T23:28:33.080Z,101933.16
2024-04-10T23:31:01.449Z,101930.63
2024-04-10T23:33:29.904Z,101936.75
2024-04-10T23:35:58.090Z,101934.88
2024-04-10T23:38:26.244Z,101928.97
2024-04-10T23:40:54.438Z,101938.59
2024-04-10T23:43:22.445Z,101937.72
2024-04-10T23:45:56.962Z,101924.00
2024-04-10T23:48:26.342Z,101926.53
2024-04-10T23:50:54.939Z,101929.25
2024-04-10T23:53:22.796Z,101926.66
2024-04-10T23:55:50.696Z,101929.25
2024-04-10T23:58:18.729Z,101930.19
